sensor_id;sensor_type;location;lat;lon;timestamp;P1;durP1;ratioP1;P2;durP2;ratioP2
73859;SDS011;62197;51.632;13.700;2023-12-22T00:00:56;1999.90;;;999.90;;
73859;SDS011;62197;51.632;13.700;2023-12-22T00:03:21;1999.90;;;999.90;;
73859;SDS011;62197;51.632;13.700;2023-12-22T00:05:47;1999.90;;;999.90;;
73859;SDS011;62197;51.632;13.700;2023-12-22T00:08:12;1999.90;;;999.90;;
73859;SDS011;62197;51.632;13.700;2023-12-22T00:10:37;1999.90;;;999.90;;
73859;SDS011;62197;51.632;13.700;2023-12-22T00:13:03;1999.90;;;999.90;;
73859;SDS011;62197;51.632;13.700;2023-12-22T00:15:28;1999.90;;;999.90;;
73859;SDS011;62197;51.632;13.700;2023-12-22T00:17:54;1999.90;;;999.90;;
73859;SDS011;62197;51.632;13.700;2023-12-22T00:20:19;1999.90;;;999.90;;
73859;SDS011;62197;51.632;13.700;2023-12-22T00:22:44;1999.90;;;999.90;;
73859;SDS011;62197;51.632;13.700;2023-12-22T00:25:10;1999.90;;;999.90;;
73859;SDS011;62197;51.632;13.700;2023-12-22T00:27:35;1999.90;;;999.90;;
73859;SDS011;62197;51.632;13.700;2023-12-22T00:30:00;1999.90;;;999.90;;
73859;SDS011;62197;51.632;13.700;2023-12-22T00:32:26;1999.90;;;999.90;;
73859;SDS011;62197;51.632;13.700;2023-12-22T00:34:51;1999.90;;;999.90;;
73859;SDS011;62197;51.632;13.700;2023-12-22T00:37:16;1999.90;;;999.90;;
73859;SDS011;62197;51.632;13.700;2023-12-22T00:39:42;1999.90;;;999.90;;
73859;SDS011;62197;51.632;13.700;2023-12-22T00:42:07;1999.90;;;999.90;;
73859;SDS011;62197;51.632;13.700;2023-12-22T00:44:32;1999.90;;;999.90;;
73859;SDS011;62197;51.632;13.700;2023-12-22T00:46:58;1999.90;;;999.90;;
73859;SDS011;62197;51.632;13.700;2023-12-22T00:49:23;1999.90;;;999.90;;
73859;SDS011;62197;51.632;13.700;2023-12-22T00:51:48;1999.90;;;999.90;;
73859;SDS011;62197;51.632;13.700;2023-12-22T00:54:14;1999.90;;;999.90;;
73859;SDS011;62197;51.632;13.700;2023-12-22T00:56:39;1999.90;;;999.90;;
73859;SDS011;62197;51.632;13.700;2023-12-22T00:59:05;1999.90;;;999.90;;
73859;SDS011;62197;51.632;13.700;2023-12-22T01:01:30;1999.90;;;999.90;;
73859;SDS011;62197;51.632;13.700;2023-12-22T01:03:55;1999.90;;;999.90;;
73859;SDS011;62197;51.632;13.700;2023-12-22T01:06:21;1999.90;;;999.90;;
73859;SDS011;62197;51.632;13.700;2023-12-22T01:08:46;1999.90;;;999.90;;
73859;SDS011;62197;51.632;13.700;2023-12-22T01:11:14;1999.90;;;999.90;;
73859;SDS011;62197;51.632;13.700;2023-12-22T01:13:40;1999.90;;;999.90;;
73859;SDS011;62197;51.632;13.700;2023-12-22T01:16:06;1999.90;;;999.90;;
73859;SDS011;62197;51.632;13.700;2023-12-22T01:18:31;1999.90;;;999.90;;
73859;SDS011;62197;51.632;13.700;2023-12-22T01:20:56;1999.90;;;999.90;;
73859;SDS011;62197;51.632;13.700;2023-12-22T01:23:22;1999.90;;;999.90;;
73859;SDS011;62197;51.632;13.700;2023-12-22T01:25:47;1999.90;;;999.90;;
73859;SDS011;62197;51.632;13.700;2023-12-22T01:28:13;1999.90;;;999.90;;
73859;SDS011;62197;51.632;13.700;2023-12-22T01:30:38;1999.90;;;999.90;;
73859;SDS011;62197;51.632;13.700;2023-12-22T01:33:03;1999.90;;;999.90;;
73859;SDS011;62197;51.632;13.700;2023-12-22T01:35:29;1999.90;;;999.90;;
73859;SDS011;62197;51.632;13.700;2023-12-22T01:37:54;1999.90;;;999.90;;
73859;SDS011;62197;51.632;13.700;2023-12-22T01:40:21;1999.90;;;999.90;;
73859;SDS011;62197;51.632;13.700;2023-12-22T01:42:47;1999.90;;;999.90;;
73859;SDS011;62197;51.632;13.700;2023-12-22T01:45:12;1999.90;;;999.90;;
73859;SDS011;62197;51.632;13.700;2023-12-22T01:47:38;1999.90;;;999.90;;
73859;SDS011;62197;51.632;13.700;2023-12-22T01:50:04;1999.90;;;999.90;;
73859;SDS011;62197;51.632;13.700;2023-12-22T01:52:30;1999.90;;;999.90;;
73859;SDS011;62197;51.632;13.700;2023-12-22T01:54:56;1999.90;;;999.90;;
73859;SDS011;62197;51.632;13.700;2023-12-22T01:57:21;1999.90;;;999.90;;
73859;SDS011;62197;51.632;13.700;2023-12-22T01:59:47;1999.90;;;999.90;;
73859;SDS011;62197;51.632;13.700;2023-12-22T02:04:39;1999.90;;;999.90;;
73859;SDS011;62197;51.632;13.700;2023-12-22T02:07:05;1999.90;;;999.90;;
73859;SDS011;62197;51.632;13.700;2023-12-22T02:09:33;1999.90;;;999.90;;
73859;SDS011;62197;51.632;13.700;2023-12-22T02:11:59;1999.90;;;999.90;;
73859;SDS011;62197;51.632;13.700;2023-12-22T02:14:24;1999.90;;;999.90;;
73859;SDS011;62197;51.632;13.700;2023-12-22T02:22:12;1999.90;;;999.90;;
73859;SDS011;62197;51.632;13.700;2023-12-22T02:24:38;1999.90;;;999.90;;
73859;SDS011;62197;51.632;13.700;2023-12-22T02:27:05;1999.90;;;999.90;;
73859;SDS011;62197;51.632;13.700;2023-12-22T02:32:50;1999.90;;;999.90;;
73859;SDS011;62197;51.632;13.700;2023-12-22T02:35:19;1999.90;;;999.90;;
73859;SDS011;62197;51.632;13.700;2023-12-22T02:37:46;1999.90;;;999.90;;
73859;SDS011;62197;51.632;13.700;2023-12-22T02:42:38;1999.90;;;999.90;;
73859;SDS011;62197;51.632;13.700;2023-12-22T02:45:05;1999.90;;;999.90;;
73859;SDS011;62197;51.632;13.700;2023-12-22T02:47:31;1999.90;;;999.90;;
73859;SDS011;62197;51.632;13.700;2023-12-22T02:49:58;1999.90;;;999.90;;
73859;SDS011;62197;51.632;13.700;2023-12-22T02:52:23;1999.90;;;999.90;;
73859;SDS011;62197;51.632;13.700;2023-12-22T02:54:49;1999.90;;;999.90;;
73859;SDS011;62197;51.632;13.700;2023-12-22T02:57:14;1999.90;;;999.90;;
73859;SDS011;62197;51.632;13.700;2023-12-22T02:59:39;1999.90;;;999.90;;
73859;SDS011;62197;51.632;13.700;2023-12-22T03:02:05;1999.90;;;999.90;;
73859;SDS011;62197;51.632;13.700;2023-12-22T03:04:30;1999.90;;;999.90;;
73859;SDS011;62197;51.632;13.700;2023-12-22T03:06:56;1999.90;;;999.90;;
73859;SDS011;62197;51.632;13.700;2023-12-22T03:09:21;1999.90;;;999.90;;
73859;SDS011;62197;51.632;13.700;2023-12-22T03:11:47;1999.90;;;999.90;;
73859;SDS011;62197;51.632;13.700;2023-12-22T03:14:13;1999.90;;;999.90;;
73859;SDS011;62197;51.632;13.700;2023-12-22T03:16:39;1999.90;;;999.90;;
73859;SDS011;62197;51.632;13.700;2023-12-22T03:19:04;1999.90;;;999.90;;
73859;SDS011;62197;51.632;13.700;2023-12-22T03:21:30;1999.90;;;999.90;;
73859;SDS011;62197;51.632;13.700;2023-12-22T03:23:55;1999.90;;;999.90;;
73859;SDS011;62197;51.632;13.700;2023-12-22T03:26:20;1999.90;;;999.90;;
73859;SDS011;62197;51.632;13.700;2023-12-22T03:28:46;1999.90;;;999.90;;
73859;SDS011;62197;51.632;13.700;2023-12-22T03:31:11;1999.90;;;999.90;;
73859;SDS011;62197;51.632;13.700;2023-12-22T03:33:36;1999.90;;;999.90;;
73859;SDS011;62197;51.632;13.700;2023-12-22T03:36:02;1999.90;;;999.90;;
73859;SDS011;62197;51.632;13.700;2023-12-22T03:38:27;1999.90;;;999.90;;
73859;SDS011;62197;51.632;13.700;2023-12-22T03:40:53;1999.90;;;999.90;;
73859;SDS011;62197;51.632;13.700;2023-12-22T03:43:18;1999.90;;;999.90;;
73859;SDS011;62197;51.632;13.700;2023-12-22T03:45:44;1999.90;;;999.90;;
73859;SDS011;62197;51.632;13.700;2023-12-22T03:48:09;1999.90;;;999.90;;
73859;SDS011;62197;51.632;13.700;2023-12-22T03:50:34;1999.90;;;999.90;;
73859;SDS011;62197;51.632;13.700;2023-12-22T03:53:00;1999.90;;;999.90;;
73859;SDS011;62197;51.632;13.700;2023-12-22T03:55:25;1999.90;;;999.90;;
73859;SDS011;62197;51.632;13.700;2023-12-22T03:57:51;1999.90;;;999.90;;
73859;SDS011;62197;51.632;13.700;2023-12-22T04:00:16;1999.90;;;999.90;;
73859;SDS011;62197;51.632;13.700;2023-12-22T04:02:41;1999.90;;;999.90;;
73859;SDS011;62197;51.632;13.700;2023-12-22T04:05:07;1999.90;;;999.90;;
73859;SDS011;62197;51.632;13.700;2023-12-22T04:07:32;1999.90;;;999.90;;
73859;SDS011;62197;51.632;13.700;2023-12-22T04:09:58;1999.90;;;999.90;;
73859;SDS011;62197;51.632;13.700;2023-12-22T04:12:23;1999.90;;;999.90;;
73859;SDS011;62197;51.632;13.700;2023-12-22T04:14:48;1999.90;;;999.90;;
73859;SDS011;62197;51.632;13.700;2023-12-22T04:17:14;1999.90;;;999.90;;
73859;SDS011;62197;51.632;13.700;2023-12-22T04:19:39;1999.90;;;999.90;;
73859;SDS011;62197;51.632;13.700;2023-12-22T04:22:04;1999.90;;;999.90;;
73859;SDS011;62197;51.632;13.700;2023-12-22T04:24:30;1999.90;;;999.90;;
73859;SDS011;62197;51.632;13.700;2023-12-22T04:26:55;1999.90;;;999.90;;
73859;SDS011;62197;51.632;13.700;2023-12-22T04:29:20;1999.90;;;999.90;;
73859;SDS011;62197;51.632;13.700;2023-12-22T04:31:46;1999.90;;;999.90;;
73859;SDS011;62197;51.632;13.700;2023-12-22T04:34:14;1999.90;;;999.90;;
73859;SDS011;62197;51.632;13.700;2023-12-22T04:36:40;1999.90;;;999.90;;
73859;SDS011;62197;51.632;13.700;2023-12-22T04:39:06;1999.90;;;999.90;;
73859;SDS011;62197;51.632;13.700;2023-12-22T04:41:32;1999.90;;;999.90;;
73859;SDS011;62197;51.632;13.700;2023-12-22T04:43:57;1999.90;;;999.90;;
73859;SDS011;62197;51.632;13.700;2023-12-22T04:46:23;1999.90;;;999.90;;
73859;SDS011;62197;51.632;13.700;2023-12-22T04:48:48;1999.90;;;999.90;;
73859;SDS011;62197;51.632;13.700;2023-12-22T04:51:13;1999.90;;;999.90;;
73859;SDS011;62197;51.632;13.700;2023-12-22T04:53:39;1999.90;;;999.90;;
73859;SDS011;62197;51.632;13.700;2023-12-22T04:56:04;1999.90;;;999.90;;
73859;SDS011;62197;51.632;13.700;2023-12-22T04:58:30;1999.90;;;999.90;;
73859;SDS011;62197;51.632;13.700;2023-12-22T05:00:55;1999.90;;;999.90;;
73859;SDS011;62197;51.632;13.700;2023-12-22T05:03:20;1999.90;;;999.90;;
73859;SDS011;62197;51.632;13.700;2023-12-22T05:05:46;1999.90;;;999.90;;
73859;SDS011;62197;51.632;13.700;2023-12-22T05:08:11;1999.90;;;999.90;;
73859;SDS011;62197;51.632;13.700;2023-12-22T05:10:36;1999.90;;;999.90;;
73859;SDS011;62197;51.632;13.700;2023-12-22T05:13:02;1999.90;;;999.90;;
73859;SDS011;62197;51.632;13.700;2023-12-22T05:15:28;1999.90;;;999.90;;
73859;SDS011;62197;51.632;13.700;2023-12-22T05:17:53;1999.90;;;999.90;;
73859;SDS011;62197;51.632;13.700;2023-12-22T05:20:18;1999.90;;;999.90;;
73859;SDS011;62197;51.632;13.700;2023-12-22T05:22:44;1999.90;;;999.90;;
73859;SDS011;62197;51.632;13.700;2023-12-22T05:25:09;1999.90;;;999.90;;
73859;SDS011;62197;51.632;13.700;2023-12-22T05:27:37;1999.90;;;999.90;;
73859;SDS011;62197;51.632;13.700;2023-12-22T05:30:04;1999.90;;;999.90;;
73859;SDS011;62197;51.632;13.700;2023-12-22T05:32:30;1999.90;;;999.90;;
73859;SDS011;62197;51.632;13.700;2023-12-22T05:34:55;1999.90;;;999.90;;
73859;SDS011;62197;51.632;13.700;2023-12-22T05:37:21;1999.90;;;999.90;;
73859;SDS011;62197;51.632;13.700;2023-12-22T05:39:46;1999.90;;;999.90;;
73859;SDS011;62197;51.632;13.700;2023-12-22T05:42:11;1999.90;;;999.90;;
73859;SDS011;62197;51.632;13.700;2023-12-22T05:44:37;1999.90;;;999.90;;
73859;SDS011;62197;51.632;13.700;2023-12-22T05:47:03;1999.90;;;999.90;;
73859;SDS011;62197;51.632;13.700;2023-12-22T05:49:29;1999.90;;;999.90;;
73859;SDS011;62197;51.632;13.700;2023-12-22T05:51:54;1999.90;;;999.90;;
73859;SDS011;62197;51.632;13.700;2023-12-22T05:54:20;1999.90;;;999.90;;
73859;SDS011;62197;51.632;13.700;2023-12-22T05:56:45;1999.90;;;999.90;;
73859;SDS011;62197;51.632;13.700;2023-12-22T05:59:10;1999.90;;;999.90;;
73859;SDS011;62197;51.632;13.700;2023-12-22T06:01:36;1999.90;;;999.90;;
73859;SDS011;62197;51.632;13.700;2023-12-22T06:04:01;1999.90;;;999.90;;
73859;SDS011;62197;51.632;13.700;2023-12-22T06:06:27;1999.90;;;999.90;;
73859;SDS011;62197;51.632;13.700;2023-12-22T06:08:53;1999.90;;;999.90;;
73859;SDS011;62197;51.632;13.700;2023-12-22T06:11:18;1999.90;;;999.90;;
73859;SDS011;62197;51.632;13.700;2023-12-22T06:13:44;1999.90;;;999.90;;
73859;SDS011;62197;51.632;13.700;2023-12-22T06:16:12;1999.90;;;999.90;;
73859;SDS011;62197;51.632;13.700;2023-12-22T06:18:39;1999.90;;;999.90;;
73859;SDS011;62197;51.632;13.700;2023-12-22T06:21:04;1999.90;;;999.90;;
73859;SDS011;62197;51.632;13.700;2023-12-22T06:23:30;1999.90;;;999.90;;
73859;SDS011;62197;51.632;13.700;2023-12-22T06:25:55;1999.90;;;999.90;;
73859;SDS011;62197;51.632;13.700;2023-12-22T06:28:21;1999.90;;;999.90;;
73859;SDS011;62197;51.632;13.700;2023-12-22T06:30:46;1999.90;;;999.90;;
73859;SDS011;62197;51.632;13.700;2023-12-22T06:33:12;1999.90;;;999.90;;
73859;SDS011;62197;51.632;13.700;2023-12-22T06:35:37;1999.90;;;999.90;;
73859;SDS011;62197;51.632;13.700;2023-12-22T06:38:05;1999.90;;;999.90;;
73859;SDS011;62197;51.632;13.700;2023-12-22T06:40:31;1999.90;;;999.90;;
73859;SDS011;62197;51.632;13.700;2023-12-22T06:42:57;1999.90;;;999.90;;
73859;SDS011;62197;51.632;13.700;2023-12-22T06:45:22;1999.90;;;999.90;;
73859;SDS011;62197;51.632;13.700;2023-12-22T06:47:48;1999.90;;;999.90;;
73859;SDS011;62197;51.632;13.700;2023-12-22T06:50:13;1999.90;;;999.90;;
73859;SDS011;62197;51.632;13.700;2023-12-22T06:52:38;1999.90;;;999.90;;
73859;SDS011;62197;51.632;13.700;2023-12-22T06:55:04;1999.90;;;999.90;;
73859;SDS011;62197;51.632;13.700;2023-12-22T06:57:30;1999.90;;;999.90;;
73859;SDS011;62197;51.632;13.700;2023-12-22T06:59:55;1999.90;;;999.90;;
73859;SDS011;62197;51.632;13.700;2023-12-22T07:02:21;1999.90;;;999.90;;
73859;SDS011;62197;51.632;13.700;2023-12-22T07:07:33;1999.90;;;999.90;;
73859;SDS011;62197;51.632;13.700;2023-12-22T07:09:59;1999.90;;;999.90;;
73859;SDS011;62197;51.632;13.700;2023-12-22T07:12:24;1999.90;;;999.90;;
73859;SDS011;62197;51.632;13.700;2023-12-22T07:14:49;1999.90;;;999.90;;
73859;SDS011;62197;51.632;13.700;2023-12-22T07:17:15;1999.90;;;999.90;;
73859;SDS011;62197;51.632;13.700;2023-12-22T07:19:40;1999.90;;;999.90;;
73859;SDS011;62197;51.632;13.700;2023-12-22T07:22:06;1999.90;;;999.90;;
73859;SDS011;62197;51.632;13.700;2023-12-22T07:24:31;1999.90;;;999.90;;
73859;SDS011;62197;51.632;13.700;2023-12-22T07:26:57;1999.90;;;999.90;;
73859;SDS011;62197;51.632;13.700;2023-12-22T07:29:22;1999.90;;;999.90;;
73859;SDS011;62197;51.632;13.700;2023-12-22T07:31:47;1999.90;;;999.90;;
73859;SDS011;62197;51.632;13.700;2023-12-22T07:34:13;1999.90;;;999.90;;
73859;SDS011;62197;51.632;13.700;2023-12-22T07:36:39;1999.90;;;999.90;;
73859;SDS011;62197;51.632;13.700;2023-12-22T07:39:04;1999.90;;;999.90;;
73859;SDS011;62197;51.632;13.700;2023-12-22T07:41:31;1999.90;;;999.90;;
73859;SDS011;62197;51.632;13.700;2023-12-22T07:43:56;1999.90;;;999.90;;
73859;SDS011;62197;51.632;13.700;2023-12-22T07:46:21;1999.90;;;999.90;;
73859;SDS011;62197;51.632;13.700;2023-12-22T07:48:47;1999.90;;;999.90;;
73859;SDS011;62197;51.632;13.700;2023-12-22T07:51:13;1999.90;;;999.90;;
73859;SDS011;62197;51.632;13.700;2023-12-22T07:53:38;1999.90;;;999.90;;
73859;SDS011;62197;51.632;13.700;2023-12-22T07:56:04;1999.90;;;999.90;;
73859;SDS011;62197;51.632;13.700;2023-12-22T07:58:30;1999.90;;;999.90;;
73859;SDS011;62197;51.632;13.700;2023-12-22T08:00:56;1999.90;;;999.90;;
73859;SDS011;62197;51.632;13.700;2023-12-22T08:03:22;1999.90;;;999.90;;
73859;SDS011;62197;51.632;13.700;2023-12-22T08:05:47;1999.90;;;999.90;;
73859;SDS011;62197;51.632;13.700;2023-12-22T08:08:13;1999.90;;;999.90;;
73859;SDS011;62197;51.632;13.700;2023-12-22T08:10:38;1999.90;;;999.90;;
73859;SDS011;62197;51.632;13.700;2023-12-22T08:13:04;1999.90;;;999.90;;
73859;SDS011;62197;51.632;13.700;2023-12-22T08:15:29;1999.90;;;999.90;;
73859;SDS011;62197;51.632;13.700;2023-12-22T08:17:57;1999.90;;;999.90;;
73859;SDS011;62197;51.632;13.700;2023-12-22T08:20:22;1999.90;;;999.90;;
73859;SDS011;62197;51.632;13.700;2023-12-22T08:22:48;1999.90;;;999.90;;
73859;SDS011;62197;51.632;13.700;2023-12-22T08:25:14;1999.90;;;999.90;;
73859;SDS011;62197;51.632;13.700;2023-12-22T08:27:40;1999.90;;;999.90;;
73859;SDS011;62197;51.632;13.700;2023-12-22T08:32:32;1999.90;;;999.90;;
73859;SDS011;62197;51.632;13.700;2023-12-22T08:34:57;1999.90;;;999.90;;
73859;SDS011;62197;51.632;13.700;2023-12-22T08:37:23;1999.90;;;999.90;;
73859;SDS011;62197;51.632;13.700;2023-12-22T08:39:48;622.25;;;363.10;;
73859;SDS011;62197;51.632;13.700;2023-12-22T08:42:15;1999.90;;;999.90;;
73859;SDS011;62197;51.632;13.700;2023-12-22T08:44:41;1999.90;;;999.90;;
73859;SDS011;62197;51.632;13.700;2023-12-22T08:47:07;1999.90;;;999.90;;
73859;SDS011;62197;51.632;13.700;2023-12-22T08:49:32;1999.90;;;999.90;;
73859;SDS011;62197;51.632;13.700;2023-12-22T08:51:58;1999.90;;;999.90;;
73859;SDS011;62197;51.632;13.700;2023-12-22T08:54:23;1999.90;;;999.90;;
73859;SDS011;62197;51.632;13.700;2023-12-22T08:56:48;1999.90;;;999.90;;
73859;SDS011;62197;51.632;13.700;2023-12-22T08:59:14;1999.90;;;999.90;;
73859;SDS011;62197;51.632;13.700;2023-12-22T09:01:39;1999.90;;;999.90;;
73859;SDS011;62197;51.632;13.700;2023-12-22T09:04:06;1999.90;;;999.90;;
73859;SDS011;62197;51.632;13.700;2023-12-22T09:06:31;1999.90;;;999.90;;
73859;SDS011;62197;51.632;13.700;2023-12-22T09:08:57;1999.90;;;999.90;;
73859;SDS011;62197;51.632;13.700;2023-12-22T09:11:23;1999.90;;;999.90;;
73859;SDS011;62197;51.632;13.700;2023-12-22T09:13:48;1999.90;;;999.90;;
73859;SDS011;62197;51.632;13.700;2023-12-22T09:16:14;1999.90;;;999.90;;
73859;SDS011;62197;51.632;13.700;2023-12-22T09:18:45;1999.90;;;999.90;;
73859;SDS011;62197;51.632;13.700;2023-12-22T09:21:10;1999.90;;;999.90;;
73859;SDS011;62197;51.632;13.700;2023-12-22T09:23:35;1999.90;;;999.90;;
73859;SDS011;62197;51.632;13.700;2023-12-22T09:26:01;1999.90;;;999.90;;
73859;SDS011;62197;51.632;13.700;2023-12-22T09:28:26;1999.90;;;999.90;;
73859;SDS011;62197;51.632;13.700;2023-12-22T09:30:51;1999.90;;;999.90;;
73859;SDS011;62197;51.632;13.700;2023-12-22T09:33:17;1999.90;;;999.90;;
73859;SDS011;62197;51.632;13.700;2023-12-22T09:35:42;1999.90;;;999.90;;
73859;SDS011;62197;51.632;13.700;2023-12-22T09:38:08;1999.90;;;999.90;;
73859;SDS011;62197;51.632;13.700;2023-12-22T09:40:35;1999.90;;;999.90;;
73859;SDS011;62197;51.632;13.700;2023-12-22T09:45:27;1999.90;;;999.90;;
73859;SDS011;62197;51.632;13.700;2023-12-22T09:47:55;1999.90;;;999.90;;
73859;SDS011;62197;51.632;13.700;2023-12-22T09:50:21;1999.90;;;999.90;;
73859;SDS011;62197;51.632;13.700;2023-12-22T09:52:47;1999.90;;;999.90;;
73859;SDS011;62197;51.632;13.700;2023-12-22T09:55:13;1999.90;;;999.90;;
73859;SDS011;62197;51.632;13.700;2023-12-22T09:57:38;1999.90;;;999.90;;
73859;SDS011;62197;51.632;13.700;2023-12-22T10:00:08;1999.90;;;999.90;;
73859;SDS011;62197;51.632;13.700;2023-12-22T10:02:34;1999.90;;;999.90;;
73859;SDS011;62197;51.632;13.700;2023-12-22T10:05:01;1999.90;;;999.90;;
73859;SDS011;62197;51.632;13.700;2023-12-22T10:07:27;1999.90;;;999.90;;
73859;SDS011;62197;51.632;13.700;2023-12-22T10:09:55;1999.90;;;999.90;;
73859;SDS011;62197;51.632;13.700;2023-12-22T10:12:21;1999.90;;;999.90;;
73859;SDS011;62197;51.632;13.700;2023-12-22T10:14:47;1999.90;;;999.90;;
73859;SDS011;62197;51.632;13.700;2023-12-22T10:17:13;1999.90;;;999.90;;
73859;SDS011;62197;51.632;13.700;2023-12-22T10:19:40;1999.90;;;999.90;;
73859;SDS011;62197;51.632;13.700;2023-12-22T10:22:05;1999.90;;;999.90;;
73859;SDS011;62197;51.632;13.700;2023-12-22T10:27:03;1999.90;;;999.90;;
73859;SDS011;62197;51.632;13.700;2023-12-22T10:29:29;1999.90;;;999.90;;
73859;SDS011;62197;51.632;13.700;2023-12-22T10:31:55;1999.90;;;999.90;;
73859;SDS011;62197;51.632;13.700;2023-12-22T10:34:20;1999.90;;;999.90;;
73859;SDS011;62197;51.632;13.700;2023-12-22T10:36:46;1999.90;;;999.90;;
73859;SDS011;62197;51.632;13.700;2023-12-22T10:39:11;1999.90;;;999.90;;
73859;SDS011;62197;51.632;13.700;2023-12-22T10:41:36;1999.90;;;999.90;;
73859;SDS011;62197;51.632;13.700;2023-12-22T10:44:02;1999.90;;;999.90;;
73859;SDS011;62197;51.632;13.700;2023-12-22T10:46:28;1999.90;;;999.90;;
73859;SDS011;62197;51.632;13.700;2023-12-22T10:48:58;1999.90;;;999.90;;
73859;SDS011;62197;51.632;13.700;2023-12-22T10:51:24;1999.90;;;999.90;;
73859;SDS011;62197;51.632;13.700;2023-12-22T10:53:49;1999.90;;;999.90;;
73859;SDS011;62197;51.632;13.700;2023-12-22T10:56:16;1999.90;;;999.90;;
73859;SDS011;62197;51.632;13.700;2023-12-22T10:58:42;1999.90;;;999.90;;
73859;SDS011;62197;51.632;13.700;2023-12-22T11:01:07;14.18;;;13.45;;
73859;SDS011;62197;51.632;13.700;2023-12-22T11:03:35;60.33;;;56.17;;
73859;SDS011;62197;51.632;13.700;2023-12-22T11:06:04;176.68;;;166.23;;
73859;SDS011;62197;51.632;13.700;2023-12-22T11:08:31;11.93;;;11.43;;
73859;SDS011;62197;51.632;13.700;2023-12-22T11:11:00;1999.90;;;999.90;;
73859;SDS011;62197;51.632;13.700;2023-12-22T11:13:34;51.83;;;48.90;;
73859;SDS011;62197;51.632;13.700;2023-12-22T11:16:00;1999.90;;;999.90;;
73859;SDS011;62197;51.632;13.700;2023-12-22T11:18:26;1999.90;;;999.90;;
73859;SDS011;62197;51.632;13.700;2023-12-22T11:20:53;1999.90;;;999.90;;
73859;SDS011;62197;51.632;13.700;2023-12-22T11:23:19;1999.90;;;999.90;;
73859;SDS011;62197;51.632;13.700;2023-12-22T11:25:45;1521.72;;;770.00;;
73859;SDS011;62197;51.632;13.700;2023-12-22T11:48:55;148.35;;;71.35;;
73859;SDS011;62197;51.632;13.700;2023-12-22T11:51:21;245.13;;;105.40;;
73859;SDS011;62197;51.632;13.700;2023-12-22T11:56:26;45.70;;;16.25;;
73859;SDS011;62197;51.632;13.700;2023-12-22T11:59:33;17.95;;;2.40;;
73859;SDS011;62197;51.632;13.700;2023-12-22T12:14:31;9.13;;;1.95;;
73859;SDS011;62197;51.632;13.700;2023-12-22T12:17:05;4.10;;;1.42;;
73859;SDS011;62197;51.632;13.700;2023-12-22T12:19:34;4.38;;;1.90;;
73859;SDS011;62197;51.632;13.700;2023-12-22T12:22:00;5.65;;;1.73;;
73859;SDS011;62197;51.632;13.700;2023-12-22T12:24:25;3.25;;;2.25;;
73859;SDS011;62197;51.632;13.700;2023-12-22T12:26:50;4.40;;;1.85;;
73859;SDS011;62197;51.632;13.700;2023-12-22T12:29:16;7.50;;;1.63;;
73859;SDS011;62197;51.632;13.700;2023-12-22T12:31:42;6.22;;;1.92;;
73859;SDS011;62197;51.632;13.700;2023-12-22T12:34:09;6.95;;;1.40;;
73859;SDS011;62197;51.632;13.700;2023-12-22T12:36:35;3.25;;;2.72;;
73859;SDS011;62197;51.632;13.700;2023-12-22T12:39:06;4.03;;;1.50;;
73859;SDS011;62197;51.632;13.700;2023-12-22T12:41:32;3.58;;;1.77;;
73859;SDS011;62197;51.632;13.700;2023-12-22T12:44:05;4.35;;;1.33;;
73859;SDS011;62197;51.632;13.700;2023-12-22T12:46:32;4.03;;;2.08;;
73859;SDS011;62197;51.632;13.700;2023-12-22T12:49:10;5.43;;;2.08;;
73859;SDS011;62197;51.632;13.700;2023-12-22T12:51:39;7.05;;;1.63;;
73859;SDS011;62197;51.632;13.700;2023-12-22T12:54:07;4.57;;;2.13;;
73859;SDS011;62197;51.632;13.700;2023-12-22T12:56:37;7.20;;;2.53;;
73859;SDS011;62197;51.632;13.700;2023-12-22T12:59:14;12.80;;;2.33;;
73859;SDS011;62197;51.632;13.700;2023-12-22T13:01:41;2.58;;;2.13;;
73859;SDS011;62197;51.632;13.700;2023-12-22T13:04:08;4.07;;;1.60;;
73859;SDS011;62197;51.632;13.700;2023-12-22T13:06:33;4.90;;;1.90;;
73859;SDS011;62197;51.632;13.700;2023-12-22T13:08:59;5.27;;;1.87;;
73859;SDS011;62197;51.632;13.700;2023-12-22T13:11:28;2.72;;;1.50;;
73859;SDS011;62197;51.632;13.700;2023-12-22T13:13:56;5.88;;;1.92;;
73859;SDS011;62197;51.632;13.700;2023-12-22T13:16:24;1.92;;;1.45;;
73859;SDS011;62197;51.632;13.700;2023-12-22T13:18:51;7.70;;;2.53;;
73859;SDS011;62197;51.632;13.700;2023-12-22T13:21:17;4.78;;;1.75;;
73859;SDS011;62197;51.632;13.700;2023-12-22T13:23:42;1.52;;;0.40;;
73859;SDS011;62197;51.632;13.700;2023-12-22T13:26:18;9.03;;;1.80;;
73859;SDS011;62197;51.632;13.700;2023-12-22T13:28:44;6.07;;;2.17;;
73859;SDS011;62197;51.632;13.700;2023-12-22T13:31:12;4.83;;;2.17;;
73859;SDS011;62197;51.632;13.700;2023-12-22T13:33:39;4.60;;;2.28;;
73859;SDS011;62197;51.632;13.700;2023-12-22T13:36:05;3.42;;;1.52;;
73859;SDS011;62197;51.632;13.700;2023-12-22T13:38:31;7.18;;;2.10;;
73859;SDS011;62197;51.632;13.700;2023-12-22T13:40:57;3.50;;;1.33;;
73859;SDS011;62197;51.632;13.700;2023-12-22T13:43:22;2.45;;;1.73;;
73859;SDS011;62197;51.632;13.700;2023-12-22T13:45:52;3.97;;;1.60;;
73859;SDS011;62197;51.632;13.700;2023-12-22T13:48:18;1.63;;;1.10;;
73859;SDS011;62197;51.632;13.700;2023-12-22T13:50:54;1.73;;;1.50;;
73859;SDS011;62197;51.632;13.700;2023-12-22T13:53:26;3.75;;;3.03;;
73859;SDS011;62197;51.632;13.700;2023-12-22T13:55:55;1.92;;;0.98;;
73859;SDS011;62197;51.632;13.700;2023-12-22T13:58:21;3.08;;;1.10;;
73859;SDS011;62197;51.632;13.700;2023-12-22T14:00:46;1.67;;;1.13;;
73859;SDS011;62197;51.632;13.700;2023-12-22T14:03:12;3.22;;;0.63;;
73859;SDS011;62197;51.632;13.700;2023-12-22T14:05:37;3.73;;;1.17;;
73859;SDS011;62197;51.632;13.700;2023-12-22T14:08:05;1.37;;;0.77;;
73859;SDS011;62197;51.632;13.700;2023-12-22T14:10:31;3.63;;;1.40;;
73859;SDS011;62197;51.632;13.700;2023-12-22T14:12:56;4.60;;;2.05;;
73859;SDS011;62197;51.632;13.700;2023-12-22T14:15:22;3.13;;;1.83;;
73859;SDS011;62197;51.632;13.700;2023-12-22T14:17:48;4.13;;;2.53;;
73859;SDS011;62197;51.632;13.700;2023-12-22T14:20:13;2.33;;;2.13;;
73859;SDS011;62197;51.632;13.700;2023-12-22T14:22:39;2.13;;;1.98;;
73859;SDS011;62197;51.632;13.700;2023-12-22T14:25:05;3.00;;;1.52;;
73859;SDS011;62197;51.632;13.700;2023-12-22T14:27:30;5.38;;;2.05;;
73859;SDS011;62197;51.632;13.700;2023-12-22T14:29:56;3.40;;;1.70;;
73859;SDS011;62197;51.632;13.700;2023-12-22T14:32:21;3.47;;;1.43;;
73859;SDS011;62197;51.632;13.700;2023-12-22T14:34:47;4.05;;;1.85;;
73859;SDS011;62197;51.632;13.700;2023-12-22T14:37:12;2.40;;;2.20;;